Quata, Brazil
Current Conditions -  °F | °C
As of 8:00 PM on Tuesday 25 Nov 2014 (Local Time) from SBDN Reporting Station
Light Rain Light Rain  
Wind Chill: 72°   Ceiling: 4000
Heat Index: 72°   Visibility: 1.8mi
Dew Point: 70°   Wind: 6mph
Humidity: 94%   Direction: 210°SSW
Pressure: 29.8"   Gusts: NA
Location:  22.25°S, 50.7°W
Report Text: SBDN 252200Z 21005KT 3000 -RA BR BKN040 BKN070 22/21 Q1009
Loading
Personal Weather Stations






























Interactive Weather Map New forecast layout! Learn more

10-Day Weather Forecast

Advertisements
Track Severe Weather on mobile